Time;durP1;ratioP1;P1;durP2;ratioP2;P2;SDS_P1;SDS_P2;PMS_P1;PMS_P2;Temp;Humidity;BMP_temperature;BMP_pressure;BME280_temperature;BME280_humidity;BME280_pressure;Samples;Min_cycle;Max_cycle;Signal;HPM_P1;HPM_P2
2021/11/10 00:02:04;;;;;;;0.55;0.40;;;3.20;99.90;;;;;;5012939;28;20088;-74
2021/11/10 00:04:30;;;;;;;0.50;0.50;;;2.90;99.90;;;;;;5012807;28;20030;-73
2021/11/10 00:06:55;;;;;;;0.57;0.57;;;2.80;99.90;;;;;;5011698;28;20547;-73
2021/11/10 00:09:21;;;;;;;1.77;1.67;;;2.90;99.90;;;;;;5012678;28;20021;-74
2021/11/10 00:11:47;;;;;;;0.75;0.45;;;2.90;99.90;;;;;;5012840;28;20033;-73
2021/11/10 00:14:13;;;;;;;0.73;0.73;;;3.00;99.90;;;;;;5011377;28;20402;-73
2021/11/10 00:16:39;;;;;;;2.75;1.65;;;3.20;99.90;;;;;;5010859;28;20048;-73
2021/11/10 00:19:05;;;;;;;0.40;0.40;;;3.40;99.90;;;;;;5011360;28;20045;-73
2021/11/10 00:21:31;;;;;;;0.40;0.40;;;3.50;99.90;;;;;;5012633;28;20060;-73
2021/11/10 00:23:58;;;;;;;0.52;0.52;;;3.50;99.90;;;;;;5012555;28;20026;-74
2021/11/10 00:26:24;;;;;;;0.40;0.40;;;3.60;99.90;;;;;;5011097;28;20116;-73
2021/11/10 00:28:51;;;;;;;0.73;0.73;;;3.40;99.90;;;;;;5011242;28;20044;-73
2021/11/10 00:31:18;;;;;;;1.52;1.42;;;3.30;99.90;;;;;;5012486;28;20030;-73
2021/11/10 00:33:44;;;;;;;0.50;0.50;;;2.80;99.90;;;;;;5012589;28;20022;-73
2021/11/10 00:36:10;;;;;;;0.43;0.43;;;2.60;99.90;;;;;;4994665;28;20474;-74
2021/11/10 00:38:37;;;;;;;0.30;0.30;;;2.60;99.90;;;;;;5012474;28;20164;-74
2021/11/10 00:41:06;;;;;;;0.30;0.30;;;2.60;99.90;;;;;;5012339;28;20030;-74
2021/11/10 00:43:33;;;;;;;0.30;0.30;;;2.70;99.90;;;;;;5012323;28;20145;-73
2021/11/10 00:45:58;;;;;;;0.88;0.88;;;2.60;99.90;;;;;;5012229;28;20022;-74
2021/11/10 00:48:24;;;;;;;0.50;0.50;;;2.60;99.90;;;;;;5012304;28;20470;-74
2021/11/10 00:50:50;;;;;;;0.98;0.82;;;2.80;99.90;;;;;;5010794;28;20127;-73
2021/11/10 00:53:16;;;;;;;0.30;0.30;;;2.60;99.90;;;;;;5012236;28;20022;-74
2021/11/10 00:55:42;;;;;;;0.30;0.30;;;2.60;99.90;;;;;;5010714;28;20485;-73
2021/11/10 00:58:09;;;;;;;0.40;0.40;;;2.70;99.90;;;;;;5010863;28;20120;-73
2021/11/10 01:00:35;;;;;;;0.50;0.50;;;2.90;99.90;;;;;;5012106;28;20033;-73
2021/11/10 01:03:01;;;;;;;0.50;0.50;;;3.00;99.90;;;;;;5012023;28;20157;-73
2021/11/10 01:05:28;;;;;;;0.50;0.50;;;3.20;99.90;;;;;;5010762;28;20388;-73
2021/11/10 01:07:57;;;;;;;0.95;0.95;;;3.30;99.90;;;;;;5010779;28;20045;-73
2021/11/10 01:10:23;;;;;;;0.88;0.88;;;3.30;99.90;;;;;;5012015;28;20064;-73
2021/11/10 01:12:50;;;;;;;0.40;0.40;;;3.10;99.90;;;;;;5012060;28;20113;-74
2021/11/10 01:15:17;;;;;;;0.40;0.40;;;3.00;99.90;;;;;;5011928;28;20037;-73
2021/11/10 01:17:43;;;;;;;1.30;1.30;;;3.00;99.90;;;;;;5011954;28;20049;-73
2021/11/10 01:20:11;;;;;;;0.40;0.40;;;3.10;99.90;;;;;;5011906;28;20026;-73
2021/11/10 01:22:37;;;;;;;0.30;0.30;;;3.10;99.90;;;;;;5011852;28;20033;-73
2021/11/10 01:25:05;;;;;;;0.38;0.38;;;3.00;99.90;;;;;;5010588;28;20453;-73
2021/11/10 01:27:31;;;;;;;0.60;0.60;;;2.90;99.90;;;;;;5013463;28;20018;-73
2021/11/10 01:29:57;;;;;;;0.30;0.30;;;3.00;99.90;;;;;;5014385;28;20072;-72
2021/11/10 01:32:23;;;;;;;0.50;0.50;;;2.90;99.90;;;;;;5015810;28;20105;-73
2021/11/10 01:34:49;;;;;;;0.40;0.40;;;2.80;99.90;;;;;;5015664;28;20022;-73
2021/11/10 01:37:15;;;;;;;0.70;0.70;;;2.60;99.90;;;;;;5014395;28;20579;-72
2021/11/10 01:39:41;;;;;;;0.80;0.80;;;2.60;99.90;;;;;;4998097;28;20546;-73
2021/11/10 01:42:08;;;;;;;0.40;0.40;;;2.60;99.90;;;;;;5015598;28;20026;-73
2021/11/10 01:44:36;;;;;;;0.47;0.47;;;2.50;99.90;;;;;;5015277;28;20026;-71
2021/11/10 01:47:08;;;;;;;0.50;0.50;;;2.50;99.90;;;;;;5015650;28;20541;-72
2021/11/10 01:49:36;;;;;;;0.85;0.82;;;2.30;99.90;;;;;;5014281;28;20029;-72
2021/11/10 01:52:02;;;;;;;0.85;0.85;;;2.40;99.90;;;;;;5015616;28;20161;-73
2021/11/10 01:54:31;;;;;;;0.82;0.82;;;2.30;99.90;;;;;;5015239;28;20477;-72
2021/11/10 01:56:57;;;;;;;0.40;0.40;;;2.40;99.90;;;;;;5015446;28;20026;-73
2021/11/10 01:59:34;;;;;;;0.40;0.40;;;2.40;99.90;;;;;;5013924;28;20029;-73
2021/11/10 02:02:02;;;;;;;2.17;2.05;;;2.70;99.90;;;;;;5013942;28;20518;-72
2021/11/10 02:04:30;;;;;;;0.30;0.30;;;2.70;99.90;;;;;;5013872;28;20029;-72
2021/11/10 02:06:57;;;;;;;0.40;0.40;;;2.80;99.90;;;;;;5013976;28;20026;-73
2021/11/10 02:09:24;;;;;;;0.40;0.40;;;2.80;99.90;;;;;;5015039;28;20018;-72
2021/11/10 02:11:51;;;;;;;0.40;0.40;;;2.70;99.90;;;;;;5015106;28;20509;-73
2021/11/10 02:14:19;;;;;;;0.38;0.38;;;2.70;99.90;;;;;;4997493;28;20548;-72
2021/11/10 02:16:45;;;;;;;0.40;0.40;;;2.90;99.90;;;;;;5013702;28;20029;-72
2021/11/10 02:19:14;;;;;;;1.10;1.10;;;2.90;99.90;;;;;;5013628;28;20022;-73
2021/11/10 02:21:48;;;;;;;0.50;0.50;;;2.90;99.90;;;;;;5013343;28;20117;-72
2021/11/10 02:24:16;;;;;;;0.40;0.40;;;2.70;99.90;;;;;;5014751;28;20080;-72
2021/11/10 02:26:43;;;;;;;0.45;0.45;;;2.70;99.90;;;;;;5014553;28;20110;-72
2021/11/10 02:29:18;;;;;;;0.60;0.60;;;2.80;99.90;;;;;;5013449;28;20030;-72
2021/11/10 02:31:45;;;;;;;0.40;0.40;;;3.00;99.90;;;;;;5013662;28;20022;-72
2021/11/10 02:34:11;;;;;;;0.55;0.55;;;2.90;99.90;;;;;;5013216;28;20121;-72
2021/11/10 02:36:37;;;;;;;1.08;1.08;;;2.90;99.90;;;;;;4996831;28;20401;-73
2021/11/10 02:39:06;;;;;;;0.30;0.30;;;2.80;99.90;;;;;;4996062;28;20033;-72
2021/11/10 02:41:33;;;;;;;0.30;0.30;;;3.00;99.90;;;;;;5014468;28;20085;-72
2021/11/10 02:43:59;;;;;;;0.30;0.30;;;3.30;99.90;;;;;;5013249;28;20018;-73
2021/11/10 02:46:26;;;;;;;0.30;0.30;;;3.50;99.90;;;;;;5013159;28;20053;-72
2021/11/10 02:48:52;;;;;;;0.22;0.22;;;3.50;99.90;;;;;;5012949;28;20026;-73
2021/11/10 02:51:18;;;;;;;0.30;0.30;;;3.60;99.90;;;;;;5014223;28;20014;-72
2021/11/10 02:53:44;;;;;;;1.58;1.42;;;3.60;99.90;;;;;;5014414;28;20091;-73
2021/11/10 02:56:10;;;;;;;0.38;0.38;;;3.60;99.90;;;;;;5013875;28;20101;-73
2021/11/10 02:58:37;;;;;;;0.40;0.40;;;3.40;99.90;;;;;;5012909;28;20148;-73
2021/11/10 03:01:05;;;;;;;0.55;0.55;;;3.30;99.90;;;;;;5012805;28;20033;-73
2021/11/10 03:03:31;;;;;;;0.52;0.52;;;3.40;99.90;;;;;;4996516;28;20042;-72
2021/11/10 03:05:57;;;;;;;0.45;0.45;;;3.50;99.90;;;;;;5013980;28;20559;-72
2021/11/10 03:08:23;;;;;;;0.30;0.30;;;3.30;99.90;;;;;;5012879;28;20473;-73
2021/11/10 03:10:49;;;;;;;0.40;0.40;;;3.40;99.90;;;;;;5014031;28;20025;-73
2021/11/10 03:13:16;;;;;;;0.38;0.38;;;3.50;99.90;;;;;;5012813;28;20056;-73
2021/11/10 03:15:43;;;;;;;0.30;0.30;;;3.50;99.90;;;;;;5013686;28;20462;-72
2021/11/10 03:18:10;;;;;;;0.30;0.30;;;3.60;99.90;;;;;;5013849;28;20037;-73
2021/11/10 03:20:37;;;;;;;0.30;0.30;;;3.70;99.90;;;;;;4996072;28;20115;-73
2021/11/10 03:23:05;;;;;;;0.40;0.40;;;3.70;99.90;;;;;;5013706;28;20092;-73
2021/11/10 03:25:31;;;;;;;0.40;0.40;;;3.60;99.90;;;;;;5056622;23;20450;-90
2021/11/10 03:27:57;;;;;;;0.30;0.30;;;3.40;99.90;;;;;;4998879;28;20035;-90
2021/11/10 03:30:23;;;;;;;0.40;0.40;;;3.40;99.90;;;;;;5016260;28;20471;-90
2021/11/10 03:32:51;;;;;;;0.40;0.40;;;3.50;99.90;;;;;;5016196;28;20029;-90
2021/11/10 03:35:19;;;;;;;0.40;0.40;;;3.60;99.90;;;;;;5016248;28;20029;-90
2021/11/10 03:37:44;;;;;;;0.30;0.30;;;3.60;99.90;;;;;;4980261;28;20052;-90
2021/11/10 03:40:12;;;;;;;0.32;0.32;;;3.70;99.90;;;;;;4981006;28;20542;-90
2021/11/10 03:42:38;;;;;;;0.38;0.38;;;3.60;99.90;;;;;;4980335;28;20034;-90
2021/11/10 03:45:04;;;;;;;0.30;0.30;;;3.50;99.90;;;;;;4980440;28;20377;-90
2021/11/10 03:47:30;;;;;;;0.57;0.57;;;3.50;99.90;;;;;;4980187;28;20021;-90
2021/11/10 03:49:56;;;;;;;0.30;0.30;;;3.50;99.90;;;;;;4980215;28;20582;-89
2021/11/10 03:52:21;;;;;;;0.63;0.63;;;3.30;99.90;;;;;;4980278;28;20022;-90
2021/11/10 03:54:48;;;;;;;0.32;0.32;;;3.40;99.90;;;;;;4979749;28;20494;-90
2021/11/10 03:57:14;;;;;;;0.38;0.38;;;3.40;99.90;;;;;;4979995;28;20160;-90
2021/11/10 03:59:40;;;;;;;0.55;0.55;;;3.30;99.90;;;;;;4979947;28;20022;-90
2021/11/10 04:02:07;;;;;;;0.40;0.40;;;3.30;99.90;;;;;;4980050;28;20033;-90
2021/11/10 04:04:33;;;;;;;1.60;1.50;;;3.20;99.90;;;;;;4996941;28;20022;-90
2021/11/10 04:06:59;;;;;;;0.40;0.40;;;3.20;99.90;;;;;;4980582;28;20032;-90
2021/11/10 04:09:24;;;;;;;0.40;0.40;;;3.20;99.90;;;;;;4980493;28;20096;-90
2021/11/10 04:11:50;;;;;;;0.40;0.40;;;3.20;99.90;;;;;;4988507;28;20010;-90
2021/11/10 04:14:16;;;;;;;0.40;0.40;;;3.10;99.90;;;;;;5003472;28;20030;-91
2021/11/10 04:16:42;;;;;;;0.30;0.30;;;2.90;99.90;;;;;;4983410;28;20504;-90
2021/11/10 04:19:08;;;;;;;0.30;0.30;;;2.80;99.90;;;;;;4980242;28;20037;-90
2021/11/10 04:21:34;;;;;;;3.60;2.28;;;2.90;99.90;;;;;;4979652;28;20242;-90
2021/11/10 04:24:01;;;;;;;0.30;0.30;;;3.00;99.90;;;;;;4979733;28;20477;-90
2021/11/10 04:26:29;;;;;;;0.30;0.30;;;3.20;99.90;;;;;;4979014;28;20032;-90
2021/11/10 04:28:56;;;;;;;0.40;0.40;;;3.00;99.90;;;;;;4979598;28;20018;-90
2021/11/10 04:31:23;;;;;;;0.70;0.70;;;2.90;99.90;;;;;;4979491;28;20554;-90
2021/11/10 04:33:50;;;;;;;0.40;0.40;;;2.90;99.90;;;;;;4979438;28;20057;-90
2021/11/10 04:36:16;;;;;;;0.30;0.30;;;2.80;99.90;;;;;;4979398;28;20033;-90
2021/11/10 04:38:42;;;;;;;0.45;0.45;;;2.90;99.90;;;;;;4979474;28;20042;-89
2021/11/10 04:41:08;;;;;;;0.40;0.40;;;2.90;99.90;;;;;;4979379;28;20025;-90
2021/11/10 04:43:34;;;;;;;0.30;0.30;;;2.90;99.90;;;;;;4979540;28;20479;-90
2021/11/10 04:48:31;;;;;;;0.40;0.40;;;2.90;99.90;;;;;;4995647;28;20116;-90
2021/11/10 04:50:56;;;;;;;0.32;0.32;;;3.00;99.90;;;;;;4979314;28;20570;-90
2021/11/10 04:53:22;;;;;;;0.30;0.30;;;3.10;99.90;;;;;;4979221;28;20026;-90
2021/11/10 04:55:48;;;;;;;0.40;0.40;;;3.20;99.90;;;;;;4978863;28;20451;-90
2021/11/10 04:58:14;;;;;;;0.38;0.38;;;3.10;99.90;;;;;;4979695;28;20032;-90
2021/11/10 05:00:40;;;;;;;0.30;0.30;;;3.10;99.90;;;;;;4978760;28;20029;-89
2021/11/10 05:03:07;;;;;;;0.30;0.30;;;3.10;99.90;;;;;;4979102;28;20518;-90
2021/11/10 05:05:33;;;;;;;0.40;0.40;;;3.10;99.90;;;;;;4978733;28;20081;-90
2021/11/10 05:07:59;;;;;;;0.30;0.30;;;2.80;99.90;;;;;;4979217;28;20018;-91
2021/11/10 05:10:25;;;;;;;0.30;0.30;;;2.80;99.90;;;;;;4978929;28;20117;-90
2021/11/10 05:12:50;;;;;;;0.50;0.50;;;2.80;99.90;;;;;;4979062;28;20028;-90
2021/11/10 05:15:16;;;;;;;0.32;0.32;;;2.80;99.90;;;;;;4979023;28;20030;-89
2021/11/10 05:17:42;;;;;;;0.32;0.32;;;2.80;99.90;;;;;;4978926;28;20484;-90
2021/11/10 05:20:08;;;;;;;0.30;0.30;;;2.80;99.90;;;;;;4978908;28;20132;-90
2021/11/10 05:22:34;;;;;;;1.10;1.10;;;2.80;99.90;;;;;;4978799;28;20077;-90
2021/11/10 05:25:00;;;;;;;0.30;0.30;;;2.70;99.90;;;;;;4978903;28;20096;-90
2021/11/10 05:27:26;;;;;;;0.30;0.30;;;2.90;99.90;;;;;;4979189;28;20030;-90
2021/11/10 05:29:51;;;;;;;0.30;0.30;;;2.80;99.90;;;;;;4979247;28;20065;-89
2021/11/10 05:32:17;;;;;;;0.40;0.40;;;2.80;99.90;;;;;;4978851;28;20022;-89
2021/11/10 05:34:43;;;;;;;0.38;0.38;;;2.80;99.90;;;;;;4978739;28;20030;-90
2021/11/10 05:37:09;;;;;;;0.32;0.32;;;3.00;99.90;;;;;;4978804;28;20372;-90
2021/11/10 05:39:35;;;;;;;0.40;0.40;;;3.00;99.90;;;;;;4978799;28;20033;-90
2021/11/10 05:42:00;;;;;;;0.50;0.50;;;3.00;99.90;;;;;;4978680;28;20026;-90
2021/11/10 05:44:26;;;;;;;0.30;0.30;;;3.00;99.90;;;;;;4978751;28;20037;-90
2021/11/10 05:46:53;;;;;;;0.40;0.40;;;3.20;99.90;;;;;;4995408;28;20058;-90
2021/11/10 05:49:20;;;;;;;1.75;1.38;;;3.40;99.90;;;;;;4979045;28;20018;-90
2021/11/10 05:51:46;;;;;;;0.40;0.40;;;3.50;99.90;;;;;;4978674;28;20046;-91
2021/11/10 05:54:12;;;;;;;1.40;1.33;;;3.50;99.90;;;;;;4978686;28;20084;-90
2021/11/10 05:56:41;;;;;;;0.40;0.40;;;3.50;99.90;;;;;;4977983;28;20022;-90
2021/11/10 05:59:09;;;;;;;1.10;1.10;;;3.60;99.90;;;;;;4978710;28;20504;-90
2021/11/10 06:01:35;;;;;;;0.40;0.40;;;3.70;99.90;;;;;;4978352;28;20037;-90
2021/11/10 06:04:01;;;;;;;0.40;0.40;;;3.70;99.90;;;;;;4979100;28;20022;-90
2021/11/10 06:06:28;;;;;;;0.30;0.30;;;3.60;99.90;;;;;;4978607;28;20046;-89
2021/11/10 06:08:53;;;;;;;0.50;0.50;;;3.30;99.90;;;;;;4979813;28;20117;-90
2021/11/10 06:11:19;;;;;;;1.77;1.67;;;3.30;99.90;;;;;;4979298;28;20689;-90
2021/11/10 06:13:45;;;;;;;0.30;0.30;;;3.10;99.90;;;;;;4980078;28;20084;-90
2021/11/10 06:16:11;;;;;;;0.30;0.30;;;3.00;99.90;;;;;;4981750;28;20025;-90
2021/11/10 06:18:37;;;;;;;0.30;0.30;;;3.10;99.90;;;;;;4982181;28;20018;-89
2021/11/10 06:21:04;;;;;;;0.43;0.43;;;3.10;99.90;;;;;;4982047;28;20080;-89
2021/11/10 06:23:30;;;;;;;0.40;0.40;;;3.10;99.90;;;;;;4982279;28;20049;-89
2021/11/10 06:25:57;;;;;;;0.32;0.32;;;3.00;99.90;;;;;;4981755;28;20026;-90
2021/11/10 06:28:23;;;;;;;0.30;0.30;;;3.00;99.90;;;;;;4982056;28;20030;-89
2021/11/10 06:30:49;;;;;;;0.90;0.82;;;2.90;99.90;;;;;;4982311;28;20026;-90
2021/11/10 06:33:15;;;;;;;0.60;0.60;;;3.00;99.90;;;;;;4982506;28;20506;-90
2021/11/10 06:35:41;;;;;;;0.35;0.35;;;3.10;99.90;;;;;;4982013;28;20058;-90
2021/11/10 06:38:06;;;;;;;0.35;0.35;;;3.20;99.90;;;;;;4982086;28;20114;-90
2021/11/10 06:40:32;;;;;;;0.90;0.73;;;3.10;99.90;;;;;;4982348;28;20029;-90
2021/11/10 06:42:58;;;;;;;1.00;1.00;;;3.20;99.90;;;;;;4982877;28;20108;-90
2021/11/10 06:45:24;;;;;;;0.30;0.30;;;3.20;99.90;;;;;;4981384;28;20034;-90
2021/11/10 06:47:50;;;;;;;0.30;0.30;;;3.20;99.90;;;;;;4982410;28;20024;-90
2021/11/10 06:50:16;;;;;;;1.00;0.95;;;3.30;99.90;;;;;;4998147;28;20030;-89
2021/11/10 06:52:42;;;;;;;0.30;0.30;;;3.40;99.90;;;;;;4984485;28;20037;-90
2021/11/10 06:55:09;;;;;;;0.30;0.30;;;3.50;99.90;;;;;;4981490;28;20511;-90
2021/11/10 06:57:36;;;;;;;0.30;0.30;;;3.80;99.90;;;;;;4999166;28;20037;-90
2021/11/10 07:00:19;;;;;;;0.50;0.50;;;3.90;99.90;;;;;;5001320;28;20028;-90
2021/11/10 07:03:07;;;;;;;0.22;0.22;;;4.00;99.90;;;;;;5001277;28;20026;-90
2021/11/10 07:05:33;;;;;;;0.30;0.30;;;4.10;99.90;;;;;;5001009;28;20021;-89
2021/11/10 07:07:58;;;;;;;0.30;0.30;;;4.20;99.90;;;;;;5001615;28;20028;-89
2021/11/10 07:10:24;;;;;;;0.40;0.40;;;4.30;99.90;;;;;;5001802;28;20029;-89
2021/11/10 07:12:50;;;;;;;0.30;0.30;;;4.10;99.90;;;;;;5000605;28;20067;-89
2021/11/10 07:15:16;;;;;;;0.30;0.30;;;4.10;99.90;;;;;;5000336;28;20029;-89
2021/11/10 07:17:41;;;;;;;0.30;0.30;;;4.10;99.90;;;;;;5000968;28;20033;-89
2021/11/10 07:20:07;;;;;;;0.30;0.30;;;4.00;99.90;;;;;;5001003;28;20026;-89
2021/11/10 07:22:33;;;;;;;0.85;0.85;;;4.00;99.90;;;;;;5000636;28;20052;-90
2021/11/10 07:24:59;;;;;;;0.60;0.60;;;4.20;99.90;;;;;;5000377;28;20119;-90
2021/11/10 07:27:25;;;;;;;0.30;0.30;;;4.20;99.90;;;;;;5000527;28;20037;-90
2021/11/10 07:29:50;;;;;;;0.30;0.30;;;4.20;99.90;;;;;;4989605;28;20021;-90
2021/11/10 07:32:16;;;;;;;0.30;0.30;;;4.20;99.90;;;;;;4980779;28;20026;-90
2021/11/10 07:34:42;;;;;;;0.20;0.20;;;4.10;99.90;;;;;;4995832;28;20064;-90
2021/11/10 07:37:08;;;;;;;0.25;0.25;;;4.00;99.90;;;;;;5000058;28;20107;-89
2021/11/10 07:39:34;;;;;;;0.30;0.30;;;4.00;99.90;;;;;;4981251;28;20036;-90
2021/11/10 07:42:00;;;;;;;0.40;0.40;;;4.00;99.90;;;;;;4981875;28;20029;-90
2021/11/10 07:44:26;;;;;;;5.57;3.60;;;4.20;99.90;;;;;;4981126;28;20105;-91
2021/11/10 07:46:54;;;;;;;0.30;0.30;;;4.30;99.90;;;;;;4990449;28;20028;-91
2021/11/10 07:49:21;;;;;;;0.22;0.22;;;4.40;99.90;;;;;;5000248;28;20026;-90
2021/11/10 07:51:47;;;;;;;0.20;0.20;;;4.50;99.90;;;;;;5000063;28;20379;-90
2021/11/10 07:54:14;;;;;;;0.20;0.20;;;4.50;99.90;;;;;;5000524;28;20052;-90
2021/11/10 07:56:39;;;;;;;0.28;0.28;;;4.60;99.90;;;;;;5000240;28;20029;-90
2021/11/10 07:59:05;;;;;;;0.30;0.30;;;4.80;99.90;;;;;;5000540;28;20079;-91
2021/11/10 08:01:44;;;;;;;0.28;0.28;;;5.10;99.90;;;;;;4992873;28;20022;-91
2021/11/10 08:04:10;;;;;;;0.50;0.50;;;5.30;99.90;;;;;;4985510;28;20045;-90
2021/11/10 08:06:36;;;;;;;0.20;0.20;;;5.40;99.90;;;;;;4987480;28;20022;-91
2021/11/10 08:09:02;;;;;;;0.30;0.30;;;5.50;99.90;;;;;;4986277;28;20030;-91
2021/11/10 08:11:31;;;;;;;0.20;0.20;;;5.60;99.90;;;;;;4986582;28;20602;-91
2021/11/10 08:13:57;;;;;;;0.30;0.30;;;5.70;99.90;;;;;;4984625;28;20045;-90
2021/11/10 08:16:27;;;;;;;0.30;0.30;;;5.90;99.90;;;;;;4980948;28;21361;-90
2021/11/10 08:18:53;;;;;;;0.20;0.20;;;6.10;99.90;;;;;;5013265;28;20033;-91
2021/11/10 08:21:19;;;;;;;0.20;0.20;;;6.20;99.90;;;;;;4990900;28;20388;-90
2021/11/10 08:23:45;;;;;;;0.30;0.30;;;6.30;99.90;;;;;;4980307;28;20033;-90
2021/11/10 08:26:10;;;;;;;0.30;0.30;;;6.60;99.90;;;;;;4993444;28;20030;-90
2021/11/10 08:28:36;;;;;;;0.20;0.20;;;6.70;99.90;;;;;;4999345;28;20030;-91
2021/11/10 08:31:02;;;;;;;2.17;1.85;;;6.80;99.90;;;;;;5000381;28;20049;-90
2021/11/10 08:33:28;;;;;;;0.30;0.30;;;7.00;99.90;;;;;;5000032;28;20079;-91
2021/11/10 08:35:54;;;;;;;0.20;0.20;;;7.10;99.90;;;;;;4998925;28;20026;-91
2021/11/10 08:38:21;;;;;;;0.30;0.30;;;7.00;99.90;;;;;;4999896;28;20021;-91
2021/11/10 08:40:47;;;;;;;1.05;1.05;;;7.00;99.90;;;;;;5000159;28;20017;-91
2021/11/10 08:43:14;;;;;;;0.40;0.40;;;7.00;99.90;;;;;;5002052;28;20132;-91
2021/11/10 08:45:43;;;;;;;0.30;0.30;;;7.00;99.90;;;;;;4984736;28;20022;-90
2021/11/10 08:48:09;;;;;;;0.30;0.30;;;7.00;99.90;;;;;;4984332;28;20112;-91
2021/11/10 08:50:40;;;;;;;0.20;0.20;;;7.10;99.90;;;;;;4984222;28;20049;-90
2021/11/10 08:53:06;;;;;;;0.30;0.30;;;7.10;99.90;;;;;;4983731;28;20127;-90
2021/11/10 08:55:32;;;;;;;0.20;0.20;;;7.10;99.90;;;;;;4981349;28;20026;-89
2021/11/10 08:57:58;;;;;;;0.43;0.43;;;7.10;99.90;;;;;;4982112;28;20033;-87
2021/11/10 09:00:27;;;;;;;0.30;0.30;;;7.30;99.90;;;;;;4984928;28;20032;-88
2021/11/10 09:02:53;;;;;;;0.20;0.20;;;7.30;99.90;;;;;;4991096;28;20030;-88
2021/11/10 09:05:19;;;;;;;0.28;0.28;;;7.30;99.90;;;;;;4988281;28;20029;-87
2021/11/10 09:07:45;;;;;;;0.25;0.25;;;7.40;99.90;;;;;;4985952;28;20026;-89
2021/11/10 09:10:13;;;;;;;0.40;0.40;;;7.40;99.90;;;;;;4983185;28;20022;-89
2021/11/10 09:12:41;;;;;;;0.20;0.20;;;7.50;99.90;;;;;;4983319;28;20037;-90
2021/11/10 09:15:09;;;;;;;0.50;0.50;;;7.60;99.90;;;;;;4983413;28;20037;-90
2021/11/10 09:17:35;;;;;;;0.30;0.30;;;7.70;99.90;;;;;;4999864;28;20117;-90
2021/11/10 09:20:04;;;;;;;1.38;1.38;;;7.70;99.90;;;;;;4983100;28;20026;-91
2021/11/10 09:22:30;;;;;;;0.30;0.30;;;7.60;99.90;;;;;;4982724;28;20026;-91
2021/11/10 09:24:56;;;;;;;0.22;0.22;;;7.70;99.90;;;;;;4983512;28;20018;-91
2021/11/10 09:27:21;;;;;;;0.35;0.35;;;7.80;99.90;;;;;;4983257;28;20116;-91
2021/11/10 09:29:47;;;;;;;0.20;0.20;;;7.90;99.90;;;;;;4983493;28;20061;-88
2021/11/10 09:32:13;;;;;;;0.30;0.30;;;7.90;99.90;;;;;;4983490;28;20026;-90
2021/11/10 09:34:40;;;;;;;0.20;0.20;;;7.90;99.90;;;;;;4984352;28;20030;-90
2021/11/10 09:37:06;;;;;;;3.20;2.28;;;7.90;99.90;;;;;;4998943;28;20094;-90
2021/11/10 09:39:31;;;;;;;0.28;0.28;;;8.00;99.90;;;;;;4993775;28;20022;-89
2021/11/10 09:41:57;;;;;;;0.20;0.20;;;8.10;99.90;;;;;;4985929;28;20033;-90
2021/11/10 09:44:25;;;;;;;0.93;0.93;;;8.10;99.90;;;;;;4984525;28;20026;-91
2021/11/10 09:46:53;;;;;;;0.85;0.85;;;8.20;99.90;;;;;;4984031;28;20487;-91
2021/11/10 09:49:20;;;;;;;1.05;1.05;;;8.30;99.90;;;;;;4988377;28;20026;-91
2021/11/10 09:51:48;;;;;;;0.20;0.20;;;8.40;99.90;;;;;;4987945;28;20168;-91
2021/11/10 09:54:14;;;;;;;0.25;0.25;;;8.40;99.90;;;;;;4987589;28;20026;-91
2021/11/10 09:56:43;;;;;;;0.20;0.20;;;8.50;99.90;;;;;;4988825;28;20033;-90
2021/11/10 09:59:08;;;;;;;0.20;0.20;;;8.40;99.90;;;;;;4988565;28;20038;-91
2021/11/10 10:01:36;;;;;;;0.20;0.20;;;8.40;99.90;;;;;;4988130;28;20026;-91
2021/11/10 10:04:04;;;;;;;0.20;0.20;;;8.40;99.90;;;;;;4987690;28;20026;-91
2021/11/10 10:06:30;;;;;;;0.28;0.28;;;8.30;99.90;;;;;;4987158;28;20026;-91
2021/11/10 10:08:58;;;;;;;0.20;0.20;;;8.40;99.90;;;;;;4988416;28;20022;-91
2021/11/10 10:11:24;;;;;;;0.20;0.20;;;8.50;99.90;;;;;;4989110;28;20037;-91
2021/11/10 10:13:50;;;;;;;0.20;0.20;;;8.40;99.90;;;;;;4988175;28;20026;-91
2021/11/10 10:16:35;;;;;;;0.20;0.20;;;8.40;99.90;;;;;;4986733;28;20416;-91
2021/11/10 10:19:12;;;;;;;6.28;2.47;;;8.50;99.90;;;;;;4983816;28;20072;-91
2021/11/10 10:21:40;;;;;;;0.20;0.20;;;8.40;99.90;;;;;;4983191;28;20606;-91
2021/11/10 10:24:24;;;;;;;0.52;0.52;;;8.30;99.90;;;;;;4983161;28;20018;-90
2021/11/10 10:26:58;;;;;;;0.82;0.82;;;8.30;99.90;;;;;;4983726;28;20049;-91
2021/11/10 10:29:26;;;;;;;0.50;0.50;;;8.30;99.90;;;;;;4983352;28;20071;-90
2021/11/10 10:31:51;;;;;;;0.20;0.20;;;8.20;99.90;;;;;;4982405;28;20030;-90
2021/11/10 10:34:18;;;;;;;0.20;0.20;;;8.20;99.90;;;;;;4982827;28;20032;-91
2021/11/10 10:36:46;;;;;;;0.30;0.30;;;8.20;99.90;;;;;;4982177;28;20112;-90
2021/11/10 10:39:16;;;;;;;1.50;1.48;;;8.30;99.90;;;;;;4982695;28;20026;-91
2021/11/10 10:41:45;;;;;;;0.20;0.20;;;8.30;99.90;;;;;;4983224;28;20018;-91
2021/11/10 10:44:17;;;;;;;0.50;0.50;;;8.30;99.90;;;;;;4983001;28;20363;-91
2021/11/10 10:46:44;;;;;;;;;;;8.30;99.90;;;;;;4982818;28;20057;-91
2021/11/10 10:49:17;;;;;;;0.20;0.20;;;8.40;99.90;;;;;;4982351;28;20434;-91
2021/11/10 10:51:51;;;;;;;0.20;0.20;;;8.40;99.90;;;;;;4982095;28;20120;-91
2021/11/10 10:54:18;;;;;;;0.20;0.20;;;8.40;99.90;;;;;;4981596;28;20049;-91
2021/11/10 10:56:54;;;;;;;0.20;0.20;;;8.40;99.90;;;;;;4981580;28;20048;-91
2021/11/10 10:59:23;;;;;;;0.30;0.30;;;8.50;99.90;;;;;;4981830;28;20037;-91
2021/11/10 11:01:58;;;;;;;0.30;0.30;;;8.40;99.90;;;;;;4981901;28;20025;-91
2021/11/10 11:04:28;;;;;;;0.20;0.20;;;8.40;99.90;;;;;;4981721;28;20026;-91
2021/11/10 11:07:04;;;;;;;0.20;0.20;;;8.50;99.90;;;;;;4982117;28;20598;-91
2021/11/10 11:09:35;;;;;;;0.20;0.20;;;8.50;99.90;;;;;;4985651;28;20018;-91
2021/11/10 11:12:12;;;;;;;0.30;0.30;;;8.50;99.90;;;;;;4981504;28;20122;-91
2021/11/10 11:14:52;;;;;;;0.22;0.22;;;8.60;99.90;;;;;;4981499;28;20030;-91
2021/11/10 11:17:18;;;;;;;0.20;0.20;;;8.50;99.90;;;;;;4995724;28;20033;-91
2021/11/10 11:19:56;;;;;;;0.20;0.20;;;8.30;99.90;;;;;;5001821;28;20029;-91
2021/11/10 11:22:23;;;;;;;0.20;0.20;;;8.40;99.90;;;;;;5001222;28;20029;-91
2021/11/10 11:24:48;;;;;;;0.20;0.20;;;8.40;99.90;;;;;;4996006;28;20021;-91
2021/11/10 11:27:21;;;;;;;0.20;0.20;;;8.40;99.90;;;;;;4981636;28;20033;-91
2021/11/10 11:30:00;;;;;;;0.20;0.20;;;8.40;99.90;;;;;;4981669;28;20368;-91
2021/11/10 11:32:32;;;;;;;0.20;0.20;;;8.40;99.90;;;;;;4981588;28;20377;-91
2021/11/10 11:35:10;;;;;;;0.40;0.40;;;8.20;99.90;;;;;;4981626;28;20032;-91
2021/11/10 11:37:37;;;;;;;0.28;0.28;;;8.20;99.90;;;;;;4980988;28;20033;-91
2021/11/10 11:40:16;;;;;;;0.30;0.30;;;8.20;99.90;;;;;;4980885;28;20033;-91
2021/11/10 11:42:46;;;;;;;0.20;0.20;;;8.20;99.90;;;;;;4981002;28;20026;-91
2021/11/10 11:45:15;;;;;;;0.40;0.40;;;8.30;99.90;;;;;;4980993;28;20029;-90
2021/11/10 11:47:42;;;;;;;0.20;0.20;;;8.20;99.90;;;;;;4981123;28;20113;-91
2021/11/10 11:50:09;;;;;;;0.90;0.90;;;8.10;99.90;;;;;;4980730;28;20111;-91
2021/11/10 11:52:36;;;;;;;0.82;0.77;;;8.10;99.90;;;;;;4980899;28;20025;-91
2021/11/10 11:55:11;;;;;;;0.75;0.75;;;8.20;99.90;;;;;;4980225;28;20022;-91
2021/11/10 11:57:40;;;;;;;0.20;0.20;;;8.20;99.90;;;;;;4980630;28;20021;-90
2021/11/10 12:00:07;;;;;;;0.38;0.38;;;8.20;99.90;;;;;;4981010;28;20080;-91
2021/11/10 12:02:39;;;;;;;0.35;0.35;;;8.20;99.90;;;;;;4980680;28;20022;-91
2021/11/10 12:05:26;;;;;;;0.30;0.30;;;8.10;99.90;;;;;;4980757;28;20030;-91
2021/11/10 12:07:59;;;;;;;0.20;0.20;;;8.00;99.90;;;;;;4980653;28;20018;-91
2021/11/10 12:10:34;;;;;;;0.93;0.93;;;8.10;99.90;;;;;;4980950;28;20112;-91
2021/11/10 12:13:13;;;;;;;0.30;0.30;;;8.00;99.90;;;;;;4980183;28;20112;-91
2021/11/10 12:15:57;;;;;;;0.20;0.20;;;7.90;99.90;;;;;;4980276;28;20419;-90
2021/11/10 12:18:29;;;;;;;0.20;0.20;;;8.00;99.90;;;;;;4979737;28;20506;-91
2021/11/10 12:21:02;;;;;;;0.30;0.30;;;8.00;99.90;;;;;;4980679;28;20499;-91
2021/11/10 12:23:50;;;;;;;0.60;0.60;;;8.20;99.90;;;;;;4979951;28;20065;-91
2021/11/10 12:26:16;;;;;;;0.30;0.30;;;8.30;99.90;;;;;;4985736;28;20561;-91
2021/11/10 12:28:59;;;;;;;0.20;0.20;;;8.30;99.90;;;;;;4999474;28;20029;-91
2021/11/10 12:31:37;;;;;;;0.55;0.55;;;8.30;99.90;;;;;;4979735;28;20056;-91
2021/11/10 12:34:18;;;;;;;0.20;0.20;;;8.30;99.90;;;;;;4979887;28;20395;-91
2021/11/10 12:37:03;;;;;;;0.20;0.20;;;8.30;99.90;;;;;;4980099;28;20026;-91
2021/11/10 12:39:38;;;;;;;0.20;0.20;;;8.30;99.90;;;;;;4980211;28;20530;-91
2021/11/10 12:42:07;;;;;;;0.40;0.40;;;8.40;99.90;;;;;;4981016;28;20030;-91
2021/11/10 12:44:39;;;;;;;0.20;0.20;;;8.40;99.90;;;;;;4981060;28;20018;-91
2021/11/10 12:47:06;;;;;;;0.40;0.40;;;8.40;99.90;;;;;;4982935;28;20033;-91
2021/11/10 12:49:32;;;;;;;0.75;0.75;;;8.40;99.90;;;;;;4980758;28;20029;-91
2021/11/10 12:52:10;;;;;;;0.30;0.30;;;8.30;99.90;;;;;;4980738;28;20030;-91
2021/11/10 12:54:38;;;;;;;0.20;0.20;;;8.30;99.90;;;;;;4980631;28;20022;-91
2021/11/10 12:57:05;;;;;;;0.20;0.20;;;8.30;99.90;;;;;;4981180;28;20116;-91
2021/11/10 12:59:49;;;;;;;0.20;0.20;;;8.30;99.90;;;;;;4979773;28;20048;-91
2021/11/10 13:02:17;;;;;;;0.20;0.20;;;8.30;99.90;;;;;;4980953;28;20025;-91
2021/11/10 13:04:45;;;;;;;0.30;0.30;;;8.30;99.90;;;;;;4981157;28;20022;-91